Time;durP1;ratioP1;P1;durP2;ratioP2;P2;SDS_P1;SDS_P2;PMS_P1;PMS_P2;Temp;Humidity;BMP_temperature;BMP_pressure;BME280_temperature;BME280_humidity;BME280_pressure;Samples;Min_cycle;Max_cycle;Signal;HPM_P1;HPM_P2
2022/08/11 00:00:34;;;;;;;1.42;1.33;;;;;;;;;;5026851;28;20217;-33
2022/08/11 00:03:06;;;;;;;1.87;1.30;;;;;;;;;;5038151;28;20208;-31
2022/08/11 00:05:34;;;;;;;2.85;1.40;;;;;;;;;;5040806;28;20203;-28
2022/08/11 00:08:01;;;;;;;1.70;1.60;;;;;;;;;;5031205;28;20233;-34
2022/08/11 00:10:29;;;;;;;4.33;1.60;;;;;;;;;;5040543;28;20202;-33
2022/08/11 00:12:57;;;;;;;1.50;1.40;;;;;;;;;;5036140;28;20214;-32
2022/08/11 00:15:25;;;;;;;3.05;1.50;;;;;;;;;;5031830;28;20198;-32
2022/08/11 00:17:57;;;;;;;1.85;1.65;;;;;;;;;;5052207;28;20291;-30
2022/08/11 00:20:30;;;;;;;2.47;1.53;;;;;;;;;;5043903;28;20567;-30
2022/08/11 00:23:02;;;;;;;1.70;1.60;;;;;;;;;;5028567;28;20207;-33
2022/08/11 00:25:30;;;;;;;2.85;1.60;;;;;;;;;;5040858;28;20202;-29
2022/08/11 00:27:57;;;;;;;1.50;1.40;;;;;;;;;;5056139;28;20226;-31
2022/08/11 00:30:25;;;;;;;1.52;1.42;;;;;;;;;;5035050;28;20226;-32
2022/08/11 00:32:55;;;;;;;2.17;1.63;;;;;;;;;;5038094;28;20206;-30
2022/08/11 00:35:25;;;;;;;1.60;1.33;;;;;;;;;;5033031;28;20595;-32
2022/08/11 00:37:55;;;;;;;1.70;1.60;;;;;;;;;;5031571;28;20234;-30
2022/08/11 00:40:25;;;;;;;1.75;1.65;;;;;;;;;;5036919;28;20559;-30
2022/08/11 00:43:00;;;;;;;4.00;1.40;;;;;;;;;;5051960;28;20206;-31
2022/08/11 00:45:29;;;;;;;1.88;1.65;;;;;;;;;;5043814;28;20218;-33
2022/08/11 00:48:00;;;;;;;2.63;1.70;;;;;;;;;;5028822;28;20222;-30
2022/08/11 00:50:30;;;;;;;3.45;1.67;;;;;;;;;;5037881;28;20209;-31
2022/08/11 00:53:08;;;;;;;1.67;1.57;;;;;;;;;;5029521;28;20202;-33
2022/08/11 00:56:08;;;;;;;1.70;1.60;;;;;;;;;;5042023;28;20209;-31
2022/08/11 00:58:56;;;;;;;1.43;1.40;;;;;;;;;;5032595;28;20606;-32
2022/08/11 01:01:29;;;;;;;1.73;1.63;;;;;;;;;;5017347;28;20203;-31
2022/08/11 01:04:14;;;;;;;1.90;1.77;;;;;;;;;;5030067;28;20207;-32
2022/08/11 01:06:53;;;;;;;1.70;1.60;;;;;;;;;;5031167;28;20229;-29
2022/08/11 01:09:33;;;;;;;2.37;1.80;;;;;;;;;;5026593;28;20220;-30
2022/08/11 01:12:10;;;;;;;1.80;1.70;;;;;;;;;;5051151;28;20201;-32
2022/08/11 01:14:50;;;;;;;1.65;1.55;;;;;;;;;;5048414;28;20202;-30
2022/08/11 01:17:34;;;;;;;1.60;1.50;;;;;;;;;;5024590;28;20303;-33
2022/08/11 01:20:09;;;;;;;2.53;1.40;;;;;;;;;;5033729;28;20276;-32
2022/08/11 01:22:51;;;;;;;1.50;1.40;;;;;;;;;;5028178;28;20206;-32
2022/08/11 01:25:46;;;;;;;4.17;1.93;;;;;;;;;;5031001;28;20203;-31
2022/08/11 01:28:31;;;;;;;1.60;1.50;;;;;;;;;;5031170;28;20223;-33
2022/08/11 01:31:15;;;;;;;2.90;1.70;;;;;;;;;;5021354;28;20214;-31
2022/08/11 01:33:56;;;;;;;2.23;1.50;;;;;;;;;;5033971;28;20213;-30
2022/08/11 01:36:40;;;;;;;1.70;1.60;;;;;;;;;;5011199;28;20234;-30
2022/08/11 01:39:19;;;;;;;1.90;1.80;;;;;;;;;;5028263;28;20206;-32
2022/08/11 01:45:14;;;;;;;1.80;1.70;;;;;;;;;;4990825;28;20267;-30
2022/08/11 01:47:51;;;;;;;2.53;1.60;;;;;;;;;;5020225;28;20270;-30
2022/08/11 01:50:23;;;;;;;2.30;1.50;;;;;;;;;;5037155;28;20205;-32
2022/08/11 01:53:03;;;;;;;1.60;1.50;;;;;;;;;;5032269;28;20504;-30
2022/08/11 01:55:34;;;;;;;1.73;1.60;;;;;;;;;;5032629;28;20206;-32
2022/08/11 01:58:06;;;;;;;1.53;1.43;;;;;;;;;;5030412;28;20226;-33
2022/08/11 02:00:39;;;;;;;1.93;1.43;;;;;;;;;;5024815;28;20606;-33
2022/08/11 02:03:09;;;;;;;3.17;1.80;;;;;;;;;;5036384;28;20209;-32
2022/08/11 02:05:55;;;;;;;3.13;1.90;;;;;;;;;;5031469;28;20278;-29
2022/08/11 02:13:42;;;;;;;1.73;1.57;;;;;;;;;;5025403;28;20525;-43
2022/08/11 02:16:14;;;;;;;2.27;1.70;;;;;;;;;;5031668;28;20198;-41
2022/08/11 02:24:18;;;;;;;1.67;1.57;;;;;;;;;;5018022;28;20244;-40
2022/08/11 02:26:47;;;;;;;1.60;1.50;;;;;;;;;;5026593;28;20317;-43
2022/08/11 02:29:18;;;;;;;2.03;1.73;;;;;;;;;;5026459;28;20208;-41
2022/08/11 02:34:45;;;;;;;1.90;1.80;;;;;;;;;;5006332;28;20207;-41
2022/08/11 02:37:17;;;;;;;1.80;1.70;;;;;;;;;;5006077;28;20692;-43
2022/08/11 02:39:53;;;;;;;1.80;1.70;;;;;;;;;;5020044;28;20206;-39
2022/08/11 02:42:26;;;;;;;2.00;1.80;;;;;;;;;;4992996;28;20658;-40
2022/08/11 02:45:00;;;;;;;1.60;1.50;;;;;;;;;;4992200;28;20215;-40
2022/08/11 02:47:37;;;;;;;1.87;1.77;;;;;;;;;;5007576;28;20218;-41
2022/08/11 02:50:11;;;;;;;1.90;1.80;;;;;;;;;;5021450;28;20260;-37
2022/08/11 02:52:44;;;;;;;1.60;1.50;;;;;;;;;;5004963;28;20210;-40
2022/08/11 02:55:16;;;;;;;1.97;1.80;;;;;;;;;;5011584;28;20634;-42
2022/08/11 02:57:48;;;;;;;2.67;1.70;;;;;;;;;;5030430;28;20237;-40
2022/08/11 03:00:16;;;;;;;1.77;1.67;;;;;;;;;;5015882;28;20224;-41
2022/08/11 03:02:49;;;;;;;3.23;1.77;;;;;;;;;;5001620;28;20238;-40
2022/08/11 03:05:23;;;;;;;1.87;1.77;;;;;;;;;;5020697;28;20229;-40
2022/08/11 03:07:56;;;;;;;1.83;1.73;;;;;;;;;;5013773;28;20236;-39
2022/08/11 03:10:26;;;;;;;1.87;1.77;;;;;;;;;;5014594;28;20209;-41
2022/08/11 03:18:30;;;;;;;1.53;1.43;;;;;;;;;;5018893;28;20229;-44
2022/08/11 03:21:01;;;;;;;2.07;1.60;;;;;;;;;;5025679;28;20304;-43
2022/08/11 03:23:31;;;;;;;1.63;1.53;;;;;;;;;;5012308;28;20203;-40
2022/08/11 03:26:01;;;;;;;3.07;1.60;;;;;;;;;;5018855;28;20210;-42
2022/08/11 03:28:33;;;;;;;3.00;1.90;;;;;;;;;;5023367;28;20218;-41
2022/08/11 03:31:07;;;;;;;1.80;1.70;;;;;;;;;;5005180;28;20203;-40
2022/08/11 03:36:31;;;;;;;2.67;1.60;;;;;;;;;;5025119;28;20338;-38
2022/08/11 03:39:06;;;;;;;1.60;1.50;;;;;;;;;;5018537;28;20272;-39
2022/08/11 03:41:44;;;;;;;2.03;1.60;;;;;;;;;;5015909;28;20199;-43
2022/08/11 03:44:20;;;;;;;2.00;1.90;;;;;;;;;;5012723;28;20214;-37
2022/08/11 03:46:59;;;;;;;2.23;1.80;;;;;;;;;;5013364;28;20237;-42
2022/08/11 03:49:31;;;;;;;1.63;1.53;;;;;;;;;;5006378;28;20209;-42
2022/08/11 03:52:06;;;;;;;1.80;1.70;;;;;;;;;;5004326;28;20207;-39
2022/08/11 03:54:41;;;;;;;3.93;1.67;;;;;;;;;;5018270;28;20214;-40
2022/08/11 03:57:36;;;;;;;2.00;1.90;;;;;;;;;;5033110;28;20218;-39
2022/08/11 04:00:11;;;;;;;1.97;1.87;;;;;;;;;;4996472;28;20211;-39
2022/08/11 04:03:07;;;;;;;2.40;1.70;;;;;;;;;;5012607;28;20209;-37
2022/08/11 04:06:03;;;;;;;2.37;1.50;;;;;;;;;;5027349;28;20202;-42
2022/08/11 04:08:48;;;;;;;1.90;1.80;;;;;;;;;;5013030;28;20365;-42
2022/08/11 04:11:26;;;;;;;1.83;1.63;;;;;;;;;;5027817;28;20294;-41
2022/08/11 04:17:25;;;;;;;1.70;1.60;;;;;;;;;;5010894;28;20264;-41
2022/08/11 04:20:16;;;;;;;1.83;1.73;;;;;;;;;;5020688;28;20633;-43
2022/08/11 04:23:10;;;;;;;3.63;1.80;;;;;;;;;;4958937;28;20579;-42
2022/08/11 04:25:49;;;;;;;2.10;2.00;;;;;;;;;;5015169;28;20205;-40
2022/08/11 04:28:25;;;;;;;2.23;2.03;;;;;;;;;;5012923;28;20238;-39
2022/08/11 04:30:59;;;;;;;2.00;1.67;;;;;;;;;;5022793;28;20210;-41
2022/08/11 04:33:59;;;;;;;2.27;2.07;;;;;;;;;;4999549;28;20212;-42
2022/08/11 04:39:39;;;;;;;2.20;2.00;;;;;;;;;;5013220;28;20208;-38
2022/08/11 04:45:25;;;;;;;3.70;2.03;;;;;;;;;;5019535;28;20221;-36
2022/08/11 05:02:24;;;;;;;3.60;1.77;;;;;;;;;;4999071;28;20615;-43
2022/08/11 05:07:52;;;;;;;1.87;1.77;;;;;;;;;;5006495;28;20237;-39
2022/08/11 05:10:25;;;;;;;2.43;2.23;;;;;;;;;;5018233;28;20670;-40
2022/08/11 05:12:54;;;;;;;2.90;2.20;;;;;;;;;;5034672;28;20220;-40
2022/08/11 05:35:08;;;;;;;1.70;1.60;;;;;;;;;;5013775;28;20212;-40
2022/08/11 05:37:41;;;;;;;3.67;2.70;;;;;;;;;;5011249;28;20226;-40
2022/08/11 05:56:53;;;;;;;3.27;2.57;;;;;;;;;;5030188;28;20236;-42
2022/08/11 05:59:22;;;;;;;2.60;2.40;;;;;;;;;;5034122;28;20225;-38
2022/08/11 06:01:49;;;;;;;2.53;2.33;;;;;;;;;;5010807;28;20211;-42
2022/08/11 06:04:19;;;;;;;2.40;2.20;;;;;;;;;;5016678;28;20215;-40
2022/08/11 06:06:49;;;;;;;4.17;2.00;;;;;;;;;;5005100;28;20318;-37
2022/08/11 06:09:21;;;;;;;3.67;2.63;;;;;;;;;;5015257;28;20584;-38
2022/08/11 06:11:48;;;;;;;2.80;2.47;;;;;;;;;;5033081;28;20206;-38
2022/08/11 06:14:16;;;;;;;5.53;2.50;;;;;;;;;;5033263;28;20214;-37
2022/08/11 06:16:47;;;;;;;4.17;2.50;;;;;;;;;;5011022;28;20231;-37
2022/08/11 06:19:14;;;;;;;2.40;2.20;;;;;;;;;;5017970;28;20230;-40
2022/08/11 06:21:45;;;;;;;2.27;2.07;;;;;;;;;;5012861;28;20229;-40
2022/08/11 06:24:13;;;;;;;2.20;2.00;;;;;;;;;;5028584;28;20659;-40
2022/08/11 06:26:41;;;;;;;2.93;2.37;;;;;;;;;;5013544;28;20237;-41
2022/08/11 06:29:08;;;;;;;4.87;2.33;;;;;;;;;;5013182;28;20897;-35
2022/08/11 06:31:37;;;;;;;2.43;2.23;;;;;;;;;;5007321;28;20224;-35
2022/08/11 06:34:09;;;;;;;2.33;2.13;;;;;;;;;;5013804;28;20647;-40
2022/08/11 06:36:41;;;;;;;2.40;2.20;;;;;;;;;;5013877;28;20692;-40
2022/08/11 06:39:13;;;;;;;2.83;2.40;;;;;;;;;;5019296;28;20225;-38
2022/08/11 06:41:45;;;;;;;2.60;2.20;;;;;;;;;;5012657;28;20214;-42
2022/08/11 06:44:17;;;;;;;2.77;1.90;;;;;;;;;;5009770;28;20207;-40
2022/08/11 06:46:47;;;;;;;4.23;2.70;;;;;;;;;;5016066;28;20234;-40
2022/08/11 06:52:03;;;;;;;2.70;2.20;;;;;;;;;;5007351;28;20206;-38
2022/08/11 06:54:31;;;;;;;5.27;2.50;;;;;;;;;;5019904;28;20290;-38
2022/08/11 07:02:33;;;;;;;6.15;2.10;;;;;;;;;;5003531;28;20268;-43
2022/08/11 07:05:01;;;;;;;2.35;2.15;;;;;;;;;;5016459;28;20199;-38
2022/08/11 07:16:15;;;;;;;2.33;2.13;;;;;;;;;;5000273;28;20250;-38
2022/08/11 07:30:01;;;;;;;5.35;2.40;;;;;;;;;;5005391;28;20206;-41
2022/08/11 07:32:30;;;;;;;3.85;2.28;;;;;;;;;;5006592;28;20211;-44
2022/08/11 07:35:00;;;;;;;2.88;1.88;;;;;;;;;;5011853;28;20214;-45
2022/08/11 07:37:30;;;;;;;2.72;1.88;;;;;;;;;;5010762;28;20276;-42
2022/08/11 07:39:59;;;;;;;2.38;2.15;;;;;;;;;;5030487;28;20202;-44
2022/08/11 07:42:28;;;;;;;3.40;2.38;;;;;;;;;;5011927;28;20207;-43
2022/08/11 07:53:14;;;;;;;2.30;2.10;;;;;;;;;;5010415;28;20203;-42
2022/08/11 07:55:41;;;;;;;3.63;2.00;;;;;;;;;;5011965;28;20210;-42
2022/08/11 08:20:23;;;;;;;2.22;2.05;;;;;;;;;;5032775;28;20205;-35
2022/08/11 08:22:55;;;;;;;1.95;1.85;;;;;;;;;;5035241;28;20202;-35
2022/08/11 08:25:24;;;;;;;3.72;2.15;;;;;;;;;;5052660;28;20285;-34
2022/08/11 08:27:52;;;;;;;5.10;1.80;;;;;;;;;;5048299;28;20272;-37
2022/08/11 08:33:08;;;;;;;1.77;1.67;;;;;;;;;;5043504;28;20209;-39
2022/08/11 08:35:37;;;;;;;2.53;1.90;;;;;;;;;;5037438;28;20257;-40
2022/08/11 08:38:08;;;;;;;2.38;2.10;;;;;;;;;;5029529;28;20632;-35
2022/08/11 08:40:36;;;;;;;3.10;1.80;;;;;;;;;;5037842;28;20245;-35
2022/08/11 08:43:06;;;;;;;3.83;1.88;;;;;;;;;;5036918;28;20210;-41
2022/08/11 08:45:35;;;;;;;2.17;2.00;;;;;;;;;;5043524;28;20206;-32
2022/08/11 08:48:03;;;;;;;1.88;1.77;;;;;;;;;;5048864;28;20217;-37
2022/08/11 08:53:15;;;;;;;3.50;1.83;;;;;;;;;;5047189;28;20204;-37
2022/08/11 08:55:43;;;;;;;2.10;1.70;;;;;;;;;;5040368;28;20206;-36
2022/08/11 08:58:11;;;;;;;2.75;1.80;;;;;;;;;;5053485;28;20318;-35
2022/08/11 09:00:40;;;;;;;2.53;1.98;;;;;;;;;;5049579;28;20242;-35
2022/08/11 09:03:07;;;;;;;5.05;1.80;;;;;;;;;;5049827;28;20202;-36
2022/08/11 09:05:34;;;;;;;8.00;2.10;;;;;;;;;;5042211;28;20206;-33
2022/08/11 09:08:02;;;;;;;2.38;1.58;;;;;;;;;;5032591;28;20230;-35
2022/08/11 09:10:31;;;;;;;2.40;1.92;;;;;;;;;;5037289;28;20214;-33
2022/08/11 09:12:59;;;;;;;1.50;1.40;;;;;;;;;;5041729;28;20243;-34
2022/08/11 09:15:27;;;;;;;1.30;1.20;;;;;;;;;;5041824;28;20206;-36
2022/08/11 09:18:04;;;;;;;1.60;1.48;;;;;;;;;;5035505;28;20237;-35
2022/08/11 09:20:34;;;;;;;4.07;1.92;;;;;;;;;;5052012;28;20213;-32
2022/08/11 09:31:34;;;;;;;1.42;1.25;;;;;;;;;;5050838;28;20214;-36
2022/08/11 09:34:07;;;;;;;2.28;1.55;;;;;;;;;;5063236;28;20202;-34
2022/08/11 09:42:07;;;;;;;4.85;1.52;;;;;;;;;;5032342;28;20201;-33
2022/08/11 09:44:51;;;;;;;1.70;1.60;;;;;;;;;;5032662;28;20215;-35
2022/08/11 09:47:21;;;;;;;1.80;1.67;;;;;;;;;;5036566;28;20814;-38
2022/08/11 09:49:51;;;;;;;2.25;1.30;;;;;;;;;;5040390;28;20222;-35
2022/08/11 09:52:18;;;;;;;3.88;2.38;;;;;;;;;;5048742;28;20292;-36
2022/08/11 09:54:48;;;;;;;2.15;1.80;;;;;;;;;;5051746;28;20267;-33
2022/08/11 10:00:04;;;;;;;3.00;1.77;;;;;;;;;;5047166;28;20351;-34
2022/08/11 10:02:32;;;;;;;2.47;1.65;;;;;;;;;;5037926;28;20221;-34
2022/08/11 10:07:00;;;;;;;2.30;2.10;;;;;;;;;;5041255;28;20209;-36
2022/08/11 10:07:49;;;;;;;2.75;1.65;;;;;;;;;;5043331;28;20569;-33
2022/08/11 10:10:21;;;;;;;4.18;1.60;;;;;;;;;;5031238;28;20212;-34
2022/08/11 10:12:51;;;;;;;1.70;1.60;;;;;;;;;;5036573;28;20216;-38
2022/08/11 10:20:53;;;;;;;1.20;1.10;;;;;;;;;;5046769;28;20203;-36
2022/08/11 10:28:53;;;;;;;6.47;1.73;;;;;;;;;;5044973;28;20220;-33
2022/08/11 10:34:09;;;;;;;4.15;1.88;;;;;;;;;;5038584;28;20224;-34
2022/08/11 10:36:41;;;;;;;3.15;1.63;;;;;;;;;;5040906;28;20223;-36
2022/08/11 10:39:10;;;;;;;1.65;1.48;;;;;;;;;;5036886;28;20302;-33
2022/08/11 10:44:24;;;;;;;1.65;1.55;;;;;;;;;;5037944;28;20232;-36
2022/08/11 10:49:38;;;;;;;2.38;1.60;;;;;;;;;;5034989;28;20219;-36
2022/08/11 11:00:23;;;;;;;1.85;1.50;;;;;;;;;;5039025;28;20251;-35
2022/08/11 11:02:50;;;;;;;1.27;1.25;;;;;;;;;;5036287;28;20209;-37
2022/08/11 11:05:23;;;;;;;2.70;1.27;;;;;;;;;;5041571;28;20217;-33
2022/08/11 11:07:53;;;;;;;1.85;1.65;;;;;;;;;;5035400;28;20233;-36
2022/08/11 11:10:21;;;;;;;2.75;1.40;;;;;;;;;;5039652;28;20201;-34
2022/08/11 11:18:24;;;;;;;1.60;1.50;;;;;;;;;;5042370;28;20243;-37
2022/08/11 11:20:54;;;;;;;2.90;1.50;;;;;;;;;;5034848;28;20202;-36
2022/08/11 11:23:24;;;;;;;1.67;1.58;;;;;;;;;;5040224;28;20208;-38
2022/08/11 11:26:08;;;;;;;1.50;1.40;;;;;;;;;;5041354;28;20198;-42
2022/08/11 11:28:54;;;;;;;2.00;1.60;;;;;;;;;;5037798;28;20263;-41
2022/08/11 11:31:28;;;;;;;2.05;1.40;;;;;;;;;;5037248;28;20492;-35
2022/08/11 11:34:15;;;;;;;1.48;1.38;;;;;;;;;;5037690;28;20208;-40
2022/08/11 11:36:46;;;;;;;3.63;1.95;;;;;;;;;;5042744;28;20225;-37
2022/08/11 11:39:13;;;;;;;1.50;1.40;;;;;;;;;;5040985;28;20222;-36
2022/08/11 11:41:42;;;;;;;2.95;1.30;;;;;;;;;;5038735;28;20255;-40
2022/08/11 11:44:12;;;;;;;2.38;1.30;;;;;;;;;;5044952;28;20201;-37
2022/08/11 11:46:44;;;;;;;1.25;1.20;;;;;;;;;;5042844;28;20528;-39
2022/08/11 11:49:11;;;;;;;2.10;1.42;;;;;;;;;;5038296;28;20205;-38
2022/08/11 11:51:39;;;;;;;1.48;1.30;;;;;;;;;;5041847;28;20271;-39
2022/08/11 11:54:08;;;;;;;1.38;1.25;;;;;;;;;;5047550;28;20200;-37
2022/08/11 11:56:36;;;;;;;1.60;1.50;;;;;;;;;;5043552;28;20210;-35
2022/08/11 12:01:50;;;;;;;1.50;1.20;;;;;;;;;;5037987;28;20211;-36
2022/08/11 12:04:18;;;;;;;1.42;1.33;;;;;;;;;;5053993;28;20198;-39
2022/08/11 12:06:45;;;;;;;1.55;1.25;;;;;;;;;;5049328;28;20236;-35
2022/08/11 12:09:17;;;;;;;1.30;1.20;;;;;;;;;;5043044;28;20219;-35
2022/08/11 12:14:30;;;;;;;1.55;1.40;;;;;;;;;;5032058;28;20218;-37
2022/08/11 12:16:59;;;;;;;1.60;1.23;;;;;;;;;;5040992;28;20233;-36
2022/08/11 12:19:28;;;;;;;1.35;1.25;;;;;;;;;;5043947;28;20225;-35
2022/08/11 12:27:27;;;;;;;1.35;1.25;;;;;;;;;;5033455;28;20222;-38
2022/08/11 12:29:55;;;;;;;1.48;1.38;;;;;;;;;;5036526;28;20203;-34
2022/08/11 12:32:24;;;;;;;1.33;1.20;;;;;;;;;;5048492;28;20748;-36
2022/08/11 12:34:52;;;;;;;1.40;1.30;;;;;;;;;;5051066;28;20209;-34
2022/08/11 12:37:22;;;;;;;1.30;1.20;;;;;;;;;;5047262;28;20294;-38
2022/08/11 12:45:33;;;;;;;4.63;1.40;;;;;;;;;;4998560;28;20199;-38
2022/08/11 12:53:44;;;;;;;2.05;1.13;;;;;;;;;;5034342;28;20209;-34
2022/08/11 13:07:15;;;;;;;1.52;1.20;;;;;;;;;;5051658;28;20236;-38
2022/08/11 13:09:44;;;;;;;3.33;1.42;;;;;;;;;;5040237;28;20218;-35
2022/08/11 13:14:56;;;;;;;3.30;1.50;;;;;;;;;;5048714;28;20278;-38
2022/08/11 13:17:25;;;;;;;2.28;1.40;;;;;;;;;;5039589;28;20237;-38
2022/08/11 13:19:54;;;;;;;3.63;1.30;;;;;;;;;;5047704;28;20268;-34
2022/08/11 13:22:23;;;;;;;1.13;1.05;;;;;;;;;;5041481;28;20209;-40
2022/08/11 13:24:54;;;;;;;3.30;1.30;;;;;;;;;;5039058;28;20194;-34
2022/08/11 13:27:21;;;;;;;2.05;1.30;;;;;;;;;;5051891;28;20222;-39
2022/08/11 13:29:52;;;;;;;1.50;1.40;;;;;;;;;;5051191;28;20268;-37
2022/08/11 13:32:20;;;;;;;3.50;1.35;;;;;;;;;;5044229;28;20244;-36
2022/08/11 13:34:51;;;;;;;1.00;1.00;;;;;;;;;;5039212;28;20682;-40
2022/08/11 13:37:20;;;;;;;6.40;2.50;;;;;;;;;;5036872;28;20279;-39
2022/08/11 13:39:48;;;;;;;2.75;1.30;;;;;;;;;;5035032;28;20218;-36
2022/08/11 13:42:19;;;;;;;1.40;1.30;;;;;;;;;;5050277;28;20197;-39
2022/08/11 13:44:46;;;;;;;1.42;1.33;;;;;;;;;;5051146;28;20209;-39
2022/08/11 13:47:14;;;;;;;1.63;1.20;;;;;;;;;;5038948;28;20226;-36
2022/08/11 13:49:42;;;;;;;1.75;1.50;;;;;;;;;;5050408;28;20212;-36
2022/08/11 13:52:12;;;;;;;1.77;1.40;;;;;;;;;;5036661;28;20272;-38
2022/08/11 13:54:42;;;;;;;2.40;1.65;;;;;;;;;;5050107;28;20278;-34
2022/08/11 13:57:11;;;;;;;2.17;1.10;;;;;;;;;;5050835;28;20241;-35
2022/08/11 13:59:38;;;;;;;1.58;1.48;;;;;;;;;;5050500;28;20225;-36
2022/08/11 14:02:07;;;;;;;1.38;1.25;;;;;;;;;;5043044;28;20213;-40
2022/08/11 14:04:39;;;;;;;1.73;1.48;;;;;;;;;;5038788;28;20216;-36
2022/08/11 14:07:07;;;;;;;1.35;1.35;;;;;;;;;;5038949;28;20232;-36
2022/08/11 14:09:36;;;;;;;1.52;1.27;;;;;;;;;;5138147;22;20230;-45
2022/08/11 14:14:58;;;;;;;1.40;1.30;;;;;;;;;;5036019;28;20268;-46
2022/08/11 14:17:25;;;;;;;1.70;1.50;;;;;;;;;;5035486;28;20237;-46
2022/08/11 14:19:53;;;;;;;3.03;1.38;;;;;;;;;;5034013;28;20680;-43
2022/08/11 14:22:23;;;;;;;1.50;1.40;;;;;;;;;;5026168;28;20198;-44
2022/08/11 14:24:50;;;;;;;1.17;1.17;;;;;;;;;;5024216;28;20194;-43
2022/08/11 14:27:22;;;;;;;2.33;1.45;;;;;;;;;;5015846;28;20226;-41
2022/08/11 14:29:52;;;;;;;1.25;1.13;;;;;;;;;;5034817;28;20195;-41
2022/08/11 14:32:21;;;;;;;2.85;1.10;;;;;;;;;;5011344;28;20203;-43
2022/08/11 14:34:48;;;;;;;1.20;1.20;;;;;;;;;;5018622;28;20210;-45
2022/08/11 14:37:21;;;;;;;1.88;1.30;;;;;;;;;;5031242;28;20228;-43
2022/08/11 14:39:49;;;;;;;1.58;1.45;;;;;;;;;;5043689;28;20226;-42
2022/08/11 14:48:05;;;;;;;1.70;1.48;;;;;;;;;;5029022;28;20226;-42
2022/08/11 14:50:34;;;;;;;3.00;1.27;;;;;;;;;;5033427;28;20557;-44
2022/08/11 14:53:03;;;;;;;2.75;1.20;;;;;;;;;;5029528;28;20199;-43
2022/08/11 14:58:19;;;;;;;3.47;1.40;;;;;;;;;;5030907;28;20230;-45
2022/08/11 15:00:47;;;;;;;4.43;1.50;;;;;;;;;;5028887;28;20237;-42
2022/08/11 15:03:14;;;;;;;2.38;1.20;;;;;;;;;;5040443;28;20202;-42
2022/08/11 15:05:51;;;;;;;1.23;1.13;;;;;;;;;;5035975;28;20205;-39
2022/08/11 15:08:19;;;;;;;3.05;1.02;;;;;;;;;;5037305;28;20481;-43
2022/08/11 15:10:48;;;;;;;3.55;1.33;;;;;;;;;;5031463;28;20210;-41
2022/08/11 15:13:18;;;;;;;2.20;1.35;;;;;;;;;;5032642;28;20295;-45
2022/08/11 15:18:32;;;;;;;2.28;1.40;;;;;;;;;;5028167;28;20359;-41
2022/08/11 15:37:56;;;;;;;1.50;1.30;;;;;;;;;;5013455;28;20233;-46
2022/08/11 15:46:01;;;;;;;2.90;1.30;;;;;;;;;;5039298;28;20595;-44
2022/08/11 15:48:36;;;;;;;2.10;1.35;;;;;;;;;;5018868;28;20223;-41
2022/08/11 15:51:08;;;;;;;1.35;1.25;;;;;;;;;;5023746;28;20245;-44
2022/08/11 15:53:39;;;;;;;1.50;1.33;;;;;;;;;;5021360;28;20207;-45
2022/08/11 15:56:07;;;;;;;2.78;1.98;;;;;;;;;;5046287;28;20202;-47
2022/08/11 16:04:11;;;;;;;5.88;1.45;;;;;;;;;;5028652;28;20264;-45
2022/08/11 16:06:41;;;;;;;0.98;0.98;;;;;;;;;;5021376;28;20238;-41
2022/08/11 16:09:08;;;;;;;1.45;1.15;;;;;;;;;;5038138;28;20296;-43
2022/08/11 16:11:36;;;;;;;2.13;1.20;;;;;;;;;;5036854;28;20195;-45
2022/08/11 16:16:51;;;;;;;1.38;1.38;;;;;;;;;;5027159;28;20237;-45
2022/08/11 16:19:20;;;;;;;1.30;1.20;;;;;;;;;;5025375;28;20205;-44
2022/08/11 16:21:49;;;;;;;1.73;1.23;;;;;;;;;;5038309;28;20234;-44
2022/08/11 16:24:16;;;;;;;1.70;1.10;;;;;;;;;;5041824;28;20260;-45
2022/08/11 16:26:44;;;;;;;2.63;1.20;;;;;;;;;;5030137;28;20225;-43
2022/08/11 16:29:12;;;;;;;1.48;1.38;;;;;;;;;;5031050;28;20207;-45
2022/08/11 16:32:15;;;;;;;1.45;1.35;;;;;;;;;;5023771;28;20213;-44
2022/08/11 16:40:08;;;;;;;1.80;1.10;;;;;;;;;;5046075;28;20674;-42
2022/08/11 16:48:09;;;;;;;4.97;1.30;;;;;;;;;;5031287;28;20234;-44
2022/08/11 16:50:38;;;;;;;1.35;1.25;;;;;;;;;;5028152;28;20199;-45
2022/08/11 16:53:05;;;;;;;1.25;1.10;;;;;;;;;;5022364;28;20202;-45
2022/08/11 16:55:33;;;;;;;3.20;1.40;;;;;;;;;;5029395;28;20253;-45
2022/08/11 17:00:46;;;;;;;1.83;1.55;;;;;;;;;;5033885;28;20225;-44
2022/08/11 17:14:30;;;;;;;2.00;1.30;;;;;;;;;;5049403;28;20197;-41
2022/08/11 17:17:03;;;;;;;1.15;1.15;;;;;;;;;;5023521;28;20230;-45
2022/08/11 17:19:34;;;;;;;1.17;1.17;;;;;;;;;;5048609;28;20251;-44
2022/08/11 17:24:51;;;;;;;4.30;2.60;;;;;;;;;;5033241;28;20209;-41
2022/08/11 17:27:23;;;;;;;3.58;2.25;;;;;;;;;;5025185;28;20218;-41
2022/08/11 17:29:56;;;;;;;2.05;1.30;;;;;;;;;;5045364;28;20193;-40
2022/08/11 17:35:32;;;;;;;2.67;1.52;;;;;;;;;;5027774;28;20218;-39
2022/08/11 17:38:07;;;;;;;1.25;1.10;;;;;;;;;;5019111;28;20229;-43
2022/08/11 17:40:37;;;;;;;2.67;1.30;;;;;;;;;;5032270;28;20237;-46
2022/08/11 17:48:43;;;;;;;1.30;1.20;;;;;;;;;;5032252;28;20360;-43
2022/08/11 17:59:50;;;;;;;1.45;1.13;;;;;;;;;;5037469;28;20213;-42
2022/08/11 18:05:07;;;;;;;1.60;1.40;;;;;;;;;;5039476;28;20204;-44
